Time;durP1;ratioP1;P1;durP2;ratioP2;P2;SDS_P1;SDS_P2;PMS_P1;PMS_P2;Temp;Humidity;BMP_temperature;BMP_pressure;BME280_temperature;BME280_humidity;BME280_pressure;Samples;Min_cycle;Max_cycle;Signal;HPM_P1;HPM_P2
2022/06/25 00:01:48;;;;;;;4.80;4.20;;;;;;;25.12;61.28;99227.88;4993501;28;20686;-70
2022/06/25 00:06:56;;;;;;;4.30;4.00;;;;;;;25.06;61.86;99229.06;4993161;28;20202;-69
2022/06/25 00:09:24;;;;;;;6.50;4.23;;;;;;;25.06;61.86;99221.69;4992611;28;20680;-70
2022/06/25 00:14:35;;;;;;;4.90;4.50;;;;;;;25.11;61.78;99218.09;4993900;28;20284;-70
2022/06/25 00:17:01;;;;;;;5.67;5.17;;;;;;;24.98;62.42;99210.72;4993661;28;20260;-70
2022/06/25 00:19:28;;;;;;;4.97;4.57;;;;;;;25.01;62.92;99210.91;4992848;28;20667;-70
2022/06/25 00:21:55;;;;;;;5.37;4.90;;;;;;;25.03;63.04;99212.22;4993151;28;20634;-70
2022/06/25 00:24:23;;;;;;;5.23;4.83;;;;;;;24.59;64.12;99202.84;4993602;28;20226;-70
2022/06/25 00:26:50;;;;;;;11.70;5.73;;;;;;;24.60;64.62;99210.75;4994372;28;20198;-70
2022/06/25 00:29:17;;;;;;;5.87;5.23;;;;;;;24.31;65.52;99207.31;4992957;28;20206;-70
2022/06/25 00:31:44;;;;;;;5.27;4.80;;;;;;;24.23;66.01;99199.81;4994237;28;20213;-70
2022/06/25 00:34:11;;;;;;;6.10;4.83;;;;;;;24.18;66.16;99202.59;4992483;28;20260;-70
2022/06/25 00:36:37;;;;;;;5.00;4.60;;;;;;;24.20;66.01;99194.97;4993875;28;20260;-70
2022/06/25 00:39:04;;;;;;;5.20;4.90;;;;;;;24.33;65.77;99193.44;4992963;28;20206;-70
2022/06/25 00:41:33;;;;;;;7.73;4.73;;;;;;;24.44;65.73;99195.72;4993327;28;20245;-70
2022/06/25 00:43:59;;;;;;;5.27;4.23;;;;;;;24.44;66.05;99192.19;4993133;28;20204;-70
2022/06/25 00:46:26;;;;;;;4.47;4.07;;;;;;;24.53;65.40;99198.56;4993074;28;20632;-70
2022/06/25 00:48:53;;;;;;;5.63;4.33;;;;;;;24.61;64.42;99196.06;4992608;28;20197;-70
2022/06/25 00:51:24;;;;;;;4.90;4.40;;;;;;;24.73;64.60;99193.69;4992929;28;20229;-70
2022/06/25 00:53:51;;;;;;;5.13;4.63;;;;;;;24.76;64.75;99184.16;4993517;28;20671;-70
2022/06/25 00:56:19;;;;;;;5.20;4.80;;;;;;;24.76;64.42;99182.25;4992641;28;20198;-69
2022/06/25 00:58:48;;;;;;;4.87;4.43;;;;;;;24.75;64.30;99179.81;4992594;28;20670;-70
2022/06/25 01:01:15;;;;;;;4.40;4.00;;;;;;;24.75;63.93;99186.03;4993088;28;20205;-70
2022/06/25 01:03:42;;;;;;;6.90;4.40;;;;;;;24.78;64.17;99185.47;4992418;28;20741;-70
2022/06/25 01:06:09;;;;;;;5.13;4.50;;;;;;;24.85;63.83;99175.03;4992552;28;20199;-71
2022/06/25 01:08:37;;;;;;;4.37;4.17;;;;;;;24.83;64.20;99177.22;4992857;28;20201;-70
2022/06/25 01:11:04;;;;;;;6.60;4.13;;;;;;;24.82;63.89;99178.34;4992679;28;20291;-70
2022/06/25 01:13:31;;;;;;;5.03;4.73;;;;;;;24.89;62.96;99175.22;4992221;28;20709;-70
2022/06/25 01:15:59;;;;;;;4.97;4.53;;;;;;;24.90;63.09;99172.22;4992473;28;20229;-70
2022/06/25 01:18:26;;;;;;;4.60;4.30;;;;;;;24.90;63.36;99172.22;4993265;28;20199;-70
2022/06/25 01:20:52;;;;;;;4.30;4.10;;;;;;;24.94;63.02;99172.44;4992416;28;20777;-70
2022/06/25 01:23:21;;;;;;;5.20;4.70;;;;;;;24.91;62.47;99168.41;4992648;28;20198;-69
2022/06/25 01:25:47;;;;;;;4.60;4.20;;;;;;;24.89;62.67;99150.78;4992638;28;20232;-70
2022/06/25 01:28:15;;;;;;;6.17;4.43;;;;;;;24.91;63.28;99165.69;4993108;28;20696;-70
2022/06/25 01:30:41;;;;;;;6.43;4.33;;;;;;;24.97;63.28;99160.97;4992507;28;20777;-70
2022/06/25 01:33:09;;;;;;;4.27;3.87;;;;;;;24.95;63.16;99153.13;4992911;28;20206;-70
2022/06/25 01:35:36;;;;;;;4.63;4.23;;;;;;;25.04;62.23;99156.75;4992306;28;20202;-70
2022/06/25 01:38:03;;;;;;;5.63;5.10;;;;;;;24.99;62.24;99154.13;4993393;28;20195;-70
2022/06/25 01:40:33;;;;;;;5.33;4.93;;;;;;;24.87;62.89;99151.06;4992920;28;20199;-70
2022/06/25 01:43:00;;;;;;;4.70;4.40;;;;;;;24.71;63.29;99147.00;4992519;28;20221;-69
2022/06/25 01:45:28;;;;;;;7.50;5.33;;;;;;;24.40;64.25;99151.25;4994759;28;20257;-69
2022/06/25 01:47:55;;;;;;;5.57;5.10;;;;;;;24.14;65.46;99143.75;4995982;28;20213;-69
2022/06/25 01:50:22;;;;;;;5.63;5.13;;;;;;;23.92;65.97;99144.31;4995898;28;20276;-70
2022/06/25 01:52:48;;;;;;;6.60;5.97;;;;;;;23.71;66.88;99148.34;4996266;28;20235;-69
2022/06/25 01:55:16;;;;;;;5.90;5.40;;;;;;;23.65;66.37;99152.19;4996149;28;20197;-69
2022/06/25 01:57:45;;;;;;;5.73;5.23;;;;;;;23.57;65.86;99146.63;4996315;28;20542;-70
2022/06/25 02:00:14;;;;;;;5.70;5.17;;;;;;;23.46;66.41;99145.91;4996153;28;20196;-70
2022/06/25 02:02:42;;;;;;;7.03;5.57;;;;;;;23.31;67.41;99143.34;4995897;28;20549;-70
2022/06/25 02:05:10;;;;;;;5.10;4.60;;;;;;;23.30;68.19;99130.91;4996011;28;20201;-70
2022/06/25 02:07:37;;;;;;;5.57;4.90;;;;;;;23.36;66.59;99146.00;4995688;28;20557;-70
2022/06/25 02:10:04;;;;;;;5.10;4.37;;;;;;;23.31;66.54;99154.19;4996598;28;20226;-70
2022/06/25 02:12:31;;;;;;;6.57;5.00;;;;;;;23.29;66.29;99159.13;4995534;28;20661;-71
2022/06/25 02:14:59;;;;;;;5.43;4.80;;;;;;;23.18;66.62;99162.97;4996778;28;20231;-70
2022/06/25 02:17:26;;;;;;;5.57;5.03;;;;;;;23.10;66.37;99162.78;4995665;28;20255;-70
2022/06/25 02:19:53;;;;;;;4.70;4.40;;;;;;;23.04;66.17;99170.16;4995419;28;20193;-71
2022/06/25 02:22:19;;;;;;;7.67;5.13;;;;;;;22.90;65.46;99166.47;4995395;28;20282;-71
2022/06/25 02:24:46;;;;;;;5.40;5.00;;;;;;;22.54;66.80;99173.25;4995631;28;20656;-70
2022/06/25 02:27:13;;;;;;;5.70;5.07;;;;;;;22.47;67.65;99180.88;4996375;28;20195;-71
2022/06/25 02:29:39;;;;;;;6.10;5.60;;;;;;;22.41;67.60;99187.38;4996328;28;20199;-70
2022/06/25 02:32:08;;;;;;;6.57;5.70;;;;;;;22.36;68.05;99173.88;4995426;28;20234;-70
2022/06/25 02:34:35;;;;;;;6.20;5.33;;;;;;;22.34;68.30;99173.34;4995930;28;20203;-70
2022/06/25 02:37:02;;;;;;;9.57;5.27;;;;;;;22.37;68.44;99180.13;4995440;28;20203;-71
2022/06/25 02:39:28;;;;;;;7.30;5.40;;;;;;;22.39;67.89;99184.16;4995102;28;20203;-71
2022/06/25 02:41:55;;;;;;;15.13;6.33;;;;;;;22.43;67.67;99190.63;4995601;28;20203;-71
2022/06/25 02:44:22;;;;;;;7.43;5.30;;;;;;;22.34;68.19;99184.16;4994958;28;20198;-71
2022/06/25 02:46:48;;;;;;;6.00;5.50;;;;;;;22.49;67.89;99211.19;4995516;28;20198;-70
2022/06/25 02:49:17;;;;;;;9.00;5.30;;;;;;;22.50;67.64;99201.97;4995168;28;20203;-69
2022/06/25 02:51:43;;;;;;;6.87;5.23;;;;;;;22.44;67.94;99205.78;4995551;28;20222;-70
2022/06/25 02:54:10;;;;;;;8.57;5.33;;;;;;;22.35;67.97;99204.75;4995114;28;20566;-71
2022/06/25 02:59:21;;;;;;;5.40;4.87;;;;;;;22.33;68.12;99211.53;4994909;28;20179;-71
2022/06/25 03:01:49;;;;;;;10.27;5.23;;;;;;;22.30;68.01;99202.03;4994632;28;20199;-71
2022/06/25 03:04:17;;;;;;;5.00;4.60;;;;;;;22.19;69.02;99196.97;4995283;28;20202;-71
2022/06/25 03:06:44;;;;;;;5.80;4.53;;;;;;;22.20;68.81;99202.09;4994647;28;20242;-73
2022/06/25 03:09:11;;;;;;;4.53;4.23;;;;;;;22.24;68.19;99208.59;4994737;28;20195;-72
2022/06/25 03:11:38;;;;;;;6.90;4.50;;;;;;;22.21;69.17;99203.72;4994950;28;20231;-72
2022/06/25 03:14:04;;;;;;;9.17;5.23;;;;;;;22.30;68.39;99203.97;4994825;28;20226;-72
2022/06/25 03:16:31;;;;;;;8.97;4.83;;;;;;;22.25;68.21;99188.53;4995036;28;20241;-71
2022/06/25 03:18:58;;;;;;;5.23;4.73;;;;;;;22.58;67.83;99203.28;4994811;28;20198;-71
2022/06/25 03:21:26;;;;;;;5.20;4.20;;;;;;;22.67;67.29;99213.22;4994180;28;20204;-69
2022/06/25 03:23:53;;;;;;;4.90;4.50;;;;;;;22.74;66.17;99224.56;4994171;28;20250;-71
2022/06/25 03:26:20;;;;;;;9.27;5.17;;;;;;;22.76;65.68;99227.81;4994553;28;20652;-69
2022/06/25 03:28:47;;;;;;;4.83;4.47;;;;;;;22.70;66.27;99225.41;4994159;28;20199;-69
2022/06/25 03:31:14;;;;;;;4.20;3.90;;;;;;;22.84;66.83;99221.81;4994575;28;20222;-70
2022/06/25 03:33:41;;;;;;;7.87;4.87;;;;;;;23.02;65.05;99228.41;4994581;28;20282;-71
2022/06/25 03:36:08;;;;;;;4.90;4.53;;;;;;;23.20;64.76;99239.41;4994067;28;20262;-70
2022/06/25 03:38:36;;;;;;;5.20;4.17;;;;;;;23.27;64.09;99237.19;4994473;28;20231;-70
2022/06/25 03:43:47;;;;;;;4.50;4.10;;;;;;;23.72;63.82;99238.66;4994863;28;20822;-70
2022/06/25 03:46:14;;;;;;;7.93;4.17;;;;;;;23.88;62.84;99232.78;4994629;28;20275;-69
2022/06/25 03:48:40;;;;;;;4.33;3.93;;;;;;;24.00;63.19;99226.97;4994286;28;20271;-70
2022/06/25 03:51:07;;;;;;;4.07;3.77;;;;;;;24.03;62.31;99232.66;4993648;28;20225;-70
2022/06/25 03:53:35;;;;;;;4.23;3.80;;;;;;;24.12;62.66;99236.34;4994329;28;20330;-70
2022/06/25 03:56:02;;;;;;;4.03;3.83;;;;;;;24.20;62.60;99234.88;4993530;28;20750;-70
2022/06/25 03:58:29;;;;;;;4.03;3.70;;;;;;;24.49;61.87;99230.97;4993867;28;20236;-69
2022/06/25 04:00:56;;;;;;;4.13;3.93;;;;;;;24.68;60.04;99239.97;4994048;28;20205;-70
2022/06/25 04:03:22;;;;;;;3.77;3.47;;;;;;;24.75;60.39;99237.66;4994296;28;20212;-70
2022/06/25 04:05:49;;;;;;;5.17;3.63;;;;;;;24.87;59.76;99238.03;4993421;28;20662;-70
2022/06/25 04:08:16;;;;;;;6.20;3.17;;;;;;;25.06;59.85;99239.94;4993561;28;20257;-70
2022/06/25 04:10:45;;;;;;;5.03;3.60;;;;;;;25.71;57.63;99241.53;4993316;28;20316;-70
2022/06/25 04:13:12;;;;;;;3.47;3.23;;;;;;;26.80;54.14;99243.13;4993316;28;20290;-70
2022/06/25 04:15:38;;;;;;;3.67;3.47;;;;;;;27.85;50.21;99246.78;4993256;28;20673;-71
2022/06/25 04:18:06;;;;;;;6.13;3.30;;;;;;;28.76;47.12;99239.50;4993685;28;20198;-68
2022/06/25 04:20:32;;;;;;;3.40;3.17;;;;;;;29.49;44.79;99239.31;4993353;28;20620;-69
2022/06/25 04:22:59;;;;;;;4.23;3.60;;;;;;;30.20;43.57;99243.94;4993363;28;20245;-72
2022/06/25 04:25:27;;;;;;;3.93;3.07;;;;;;;30.95;41.14;99245.75;4993449;28;20198;-69
2022/06/25 04:30:39;;;;;;;7.50;3.23;;;;;;;31.83;38.73;99238.75;4993636;28;20194;-69
2022/06/25 04:33:06;;;;;;;6.50;3.40;;;;;;;32.04;38.76;99243.03;4993840;28;20199;-69
2022/06/25 04:35:33;;;;;;;3.57;3.27;;;;;;;32.24;38.38;99235.81;4993390;28;20207;-69
2022/06/25 04:37:59;;;;;;;3.57;2.90;;;;;;;32.56;37.29;99238.44;4993034;28;20195;-69
2022/06/25 04:40:28;;;;;;;3.00;2.90;;;;;;;32.93;36.25;99237.25;4993009;28;20726;-68
2022/06/25 04:42:56;;;;;;;4.53;3.67;;;;;;;33.33;35.30;99223.44;4993895;28;20202;-69
2022/06/25 04:45:23;;;;;;;5.73;3.20;;;;;;;33.48;34.88;99225.44;4993605;28;20627;-68
2022/06/25 04:47:50;;;;;;;3.27;2.80;;;;;;;33.85;34.44;99215.00;4993503;28;20199;-69
2022/06/25 04:50:16;;;;;;;3.73;2.33;;;;;;;34.07;34.61;99223.44;4993403;28;20206;-68
2022/06/25 04:52:43;;;;;;;4.50;2.40;;;;;;;34.17;33.62;99235.91;4992890;28;20597;-68
2022/06/25 04:55:10;;;;;;;6.33;3.10;;;;;;;34.51;32.71;99237.91;4992947;28;20199;-70
2022/06/25 04:57:37;;;;;;;16.10;3.40;;;;;;;34.51;32.99;99243.44;4992903;28;20201;-70
2022/06/25 05:00:07;;;;;;;5.45;2.90;;;;;;;34.71;32.23;99242.31;4992873;28;20190;-69
2022/06/25 05:02:34;;;;;;;8.32;3.42;;;;;;;35.27;31.40;99240.78;4992806;28;20322;-69
2022/06/25 05:05:00;;;;;;;9.35;2.72;;;;;;;35.59;31.53;99248.53;4992453;28;20198;-70
2022/06/25 05:07:27;;;;;;;5.97;2.75;;;;;;;35.54;30.83;99245.25;4992845;28;20203;-70
2022/06/25 05:09:54;;;;;;;4.20;3.20;;;;;;;35.48;30.93;99235.69;4992765;28;20194;-70
2022/06/25 05:15:01;;;;;;;3.15;2.95;;;;;;;35.44;31.21;99240.34;4991963;28;20710;-69
2022/06/25 05:17:30;;;;;;;3.25;2.72;;;;;;;35.18;31.48;99242.94;4992745;28;20229;-68
2022/06/25 05:19:57;;;;;;;3.30;2.80;;;;;;;35.09;32.08;99245.13;4993910;28;20202;-71
2022/06/25 05:22:24;;;;;;;4.68;2.80;;;;;;;35.32;32.10;99238.53;4996746;28;20203;-69
2022/06/25 05:24:51;;;;;;;6.95;3.30;;;;;;;35.42;31.86;99237.13;5001438;28;20285;-70
2022/06/25 05:27:18;;;;;;;5.20;3.10;;;;;;;34.57;32.79;99237.28;4996197;28;20191;-70
2022/06/25 05:29:45;;;;;;;6.38;3.42;;;;;;;33.77;34.60;99238.00;4996583;28;20198;-70
2022/06/25 05:32:12;;;;;;;5.25;3.05;;;;;;;33.05;36.08;99231.69;4996347;28;20226;-68
2022/06/25 05:34:40;;;;;;;6.63;3.28;;;;;;;32.87;36.96;99244.13;4996514;28;20195;-70
2022/06/25 05:37:07;;;;;;;23.40;3.80;;;;;;;32.70;37.19;99243.56;4996408;28;20646;-69
2022/06/25 05:39:34;;;;;;;13.67;3.83;;;;;;;32.98;36.94;99237.00;4996201;28;20194;-68
2022/06/25 05:42:00;;;;;;;8.50;3.43;;;;;;;32.82;36.82;99240.81;4996024;28;20265;-68
2022/06/25 05:44:27;;;;;;;9.07;3.27;;;;;;;32.67;37.73;99236.81;4997301;28;20198;-67
2022/06/25 05:46:54;;;;;;;10.23;3.50;;;;;;;33.14;36.58;99231.53;4996010;28;20258;-68
2022/06/25 05:49:21;;;;;;;4.80;3.53;;;;;;;33.28;35.99;99245.72;4997086;28;20378;-68
2022/06/25 05:51:49;;;;;;;7.13;3.93;;;;;;;33.78;35.34;99250.63;4996110;28;20660;-68
2022/06/25 05:54:16;;;;;;;10.10;3.63;;;;;;;33.50;35.68;99260.88;4995779;28;20658;-67
2022/06/25 05:56:43;;;;;;;4.10;3.77;;;;;;;33.29;35.96;99256.38;4996047;28;20201;-68
2022/06/25 05:59:09;;;;;;;4.97;3.53;;;;;;;33.24;35.80;99256.63;4995612;28;20202;-68
2022/06/25 06:01:36;;;;;;;3.50;3.30;;;;;;;33.11;36.04;99255.06;4996384;28;20285;-72
2022/06/25 06:04:04;;;;;;;6.00;3.87;;;;;;;32.81;36.82;99255.72;5006738;28;20202;-65
2022/06/25 06:06:31;;;;;;;4.03;3.73;;;;;;;32.37;37.33;99245.66;5007493;28;20769;-67
2022/06/25 06:08:59;;;;;;;5.30;3.63;;;;;;;32.07;38.30;99255.28;4995282;28;20249;-66
2022/06/25 06:11:26;;;;;;;4.60;3.47;;;;;;;32.00;38.63;99263.28;5008329;28;20222;-68
2022/06/25 06:13:53;;;;;;;4.00;3.70;;;;;;;31.92;39.36;99261.44;5011753;28;20234;-69
2022/06/25 06:16:20;;;;;;;4.07;3.57;;;;;;;31.91;39.78;99271.63;5014546;28;20205;-68
2022/06/25 06:18:46;;;;;;;3.57;3.27;;;;;;;31.85;39.66;99267.50;5012014;28;20221;-67
2022/06/25 06:21:13;;;;;;;5.87;3.73;;;;;;;31.53;39.90;99259.28;5009756;28;20247;-68
2022/06/25 06:23:40;;;;;;;3.97;3.70;;;;;;;31.34;41.16;99268.03;5031529;28;20256;-67
2022/06/25 06:26:08;;;;;;;3.83;3.63;;;;;;;31.40;41.49;99274.09;5025501;28;20259;-68
2022/06/25 06:28:35;;;;;;;4.53;4.13;;;;;;;31.81;39.69;99277.56;5021577;28;20625;-69
2022/06/25 06:31:01;;;;;;;3.70;3.50;;;;;;;32.01;38.89;99276.69;5013034;28;20256;-65
2022/06/25 06:33:28;;;;;;;4.30;3.43;;;;;;;32.04;39.69;99266.94;5032449;28;20193;-68
2022/06/25 06:35:55;;;;;;;6.07;3.60;;;;;;;31.92;39.52;99270.50;5030835;28;20213;-66
2022/06/25 06:38:21;;;;;;;6.27;3.83;;;;;;;31.69;40.45;99273.97;5013073;28;20190;-66
2022/06/25 06:40:48;;;;;;;4.20;3.90;;;;;;;31.46;41.21;99270.81;5007054;28;20198;-66
2022/06/25 06:43:16;;;;;;;8.27;3.90;;;;;;;31.20;41.15;99261.19;5014058;28;20194;-65
2022/06/25 06:45:43;;;;;;;3.83;3.47;;;;;;;31.03;42.47;99261.34;5014489;28;20194;-65
2022/06/25 06:48:10;;;;;;;5.77;3.83;;;;;;;30.94;42.88;99252.38;5013603;28;20194;-65
2022/06/25 06:50:36;;;;;;;11.77;4.47;;;;;;;30.71;43.80;99257.38;5014620;28;20268;-64
2022/06/25 06:53:03;;;;;;;4.90;4.10;;;;;;;30.34;43.07;99260.94;5014101;28;20239;-64
2022/06/25 06:55:30;;;;;;;8.20;4.20;;;;;;;30.01;44.69;99257.22;5014318;28;20340;-64
2022/06/25 06:57:57;;;;;;;20.13;4.40;;;;;;;30.00;44.85;99252.88;5013844;28;20201;-64
2022/06/25 07:00:25;;;;;;;5.60;4.03;;;;;;;30.02;45.20;99253.38;5014337;28;20252;-65
2022/06/25 07:02:51;;;;;;;5.10;3.70;;;;;;;30.04;44.19;99250.28;5013601;28;20628;-64
2022/06/25 07:05:18;;;;;;;5.30;3.53;;;;;;;29.94;44.61;99251.47;5013886;28;20205;-65
2022/06/25 07:07:47;;;;;;;6.57;3.60;;;;;;;30.01;43.99;99249.00;5012896;28;20193;-65
2022/06/25 07:10:14;;;;;;;10.30;4.50;;;;;;;30.01;43.40;99251.72;5012695;28;20636;-64
2022/06/25 07:12:41;;;;;;;4.40;3.50;;;;;;;30.05;43.63;99252.69;5014129;28;20725;-65
2022/06/25 07:15:09;;;;;;;5.07;3.37;;;;;;;30.10;44.13;99252.53;4994820;28;20272;-65
2022/06/25 07:17:37;;;;;;;4.43;3.47;;;;;;;30.23;43.25;99254.25;4993747;28;20666;-65
2022/06/25 07:20:06;;;;;;;3.43;3.13;;;;;;;30.58;40.98;99266.63;4994340;28;20199;-65
2022/06/25 07:22:33;;;;;;;3.87;3.03;;;;;;;30.96;38.95;99264.63;4994438;28;20198;-65
2022/06/25 07:24:59;;;;;;;3.80;3.20;;;;;;;30.83;39.03;99256.66;4994005;28;20195;-65
2022/06/25 07:27:26;;;;;;;3.33;3.13;;;;;;;31.00;37.80;99254.56;4993736;28;20679;-65
2022/06/25 07:29:54;;;;;;;3.33;3.07;;;;;;;31.34;38.95;99248.81;4994154;28;20586;-65
2022/06/25 07:32:20;;;;;;;3.83;3.23;;;;;;;31.61;38.27;99245.44;4993748;28;20222;-64
2022/06/25 07:34:49;;;;;;;3.60;3.30;;;;;;;31.79;37.62;99252.38;4993863;28;20233;-65
2022/06/25 07:37:16;;;;;;;2.93;2.63;;;;;;;31.75;37.37;99256.94;4994210;28;20195;-65
2022/06/25 07:39:43;;;;;;;3.30;3.10;;;;;;;31.77;37.05;99257.41;4994262;28;20198;-65
2022/06/25 07:42:10;;;;;;;2.97;2.83;;;;;;;31.85;36.69;99256.50;4993675;28;20628;-65
2022/06/25 07:44:37;;;;;;;3.20;2.97;;;;;;;31.84;37.45;99252.16;4994216;28;20198;-65
2022/06/25 07:47:04;;;;;;;7.93;3.20;;;;;;;32.30;35.98;99254.50;4994568;28;20246;-64
2022/06/25 07:51:55;;;;;;;7.97;3.13;;;;;;;32.27;35.55;99257.13;4993588;28;20245;-65
2022/06/25 07:52:17;;;;;;;10.23;3.37;;;;;;;32.50;35.99;99256.31;4993602;28;20276;-65
2022/06/25 07:54:44;;;;;;;3.57;2.73;;;;;;;33.04;34.96;99256.81;4993765;28;20198;-64
2022/06/25 07:57:11;;;;;;;3.30;3.10;;;;;;;33.57;33.95;99258.34;4993823;28;20194;-65
2022/06/25 07:59:38;;;;;;;4.83;2.83;;;;;;;33.89;33.51;99247.03;4993244;28;20206;-65
2022/06/25 08:02:04;;;;;;;3.28;2.90;;;;;;;34.45;32.42;99247.66;4993564;28;20199;-65
2022/06/25 08:04:31;;;;;;;3.25;3.05;;;;;;;34.51;32.52;99251.72;4993941;28;20190;-65
2022/06/25 08:06:58;;;;;;;6.18;3.10;;;;;;;34.58;31.89;99246.38;4994769;28;20203;-65
2022/06/25 08:09:26;;;;;;;3.10;2.80;;;;;;;34.51;32.16;99252.53;4993949;28;20199;-65
2022/06/25 08:11:53;;;;;;;3.65;2.90;;;;;;;34.53;32.37;99244.66;4975725;28;20269;-65
2022/06/25 08:14:19;;;;;;;3.70;2.90;;;;;;;34.71;31.84;99250.59;4986319;28;20234;-66
2022/06/25 08:16:46;;;;;;;5.63;3.08;;;;;;;34.60;31.78;99255.06;4993569;28;20194;-65
2022/06/25 08:19:13;;;;;;;3.35;2.97;;;;;;;34.28;31.99;99235.00;4993434;28;20667;-66
2022/06/25 08:21:39;;;;;;;3.65;3.33;;;;;;;34.28;31.81;99253.50;4993674;28;20191;-65
2022/06/25 08:24:06;;;;;;;3.85;3.08;;;;;;;34.29;32.18;99249.59;4993293;28;20198;-65
2022/06/25 08:26:35;;;;;;;3.03;2.83;;;;;;;34.18;32.66;99243.00;4993468;28;20199;-66
2022/06/25 08:29:01;;;;;;;3.20;3.00;;;;;;;34.35;32.73;99237.16;4993046;28;20659;-65
2022/06/25 08:31:29;;;;;;;3.30;3.13;;;;;;;34.16;32.44;99240.59;4994435;28;20203;-65
2022/06/25 08:33:55;;;;;;;3.90;3.03;;;;;;;34.23;33.24;99234.47;4992656;28;20226;-65
2022/06/25 08:36:23;;;;;;;5.20;3.92;;;;;;;34.05;33.19;99236.78;4993120;28;20257;-64
2022/06/25 08:38:49;;;;;;;3.47;3.13;;;;;;;34.11;33.10;99237.31;4992772;28;20286;-65
2022/06/25 08:41:17;;;;;;;3.63;3.30;;;;;;;34.13;33.17;99243.28;4993041;28;20198;-65
2022/06/25 08:43:45;;;;;;;3.65;3.30;;;;;;;34.05;33.89;99238.75;4992982;28;20198;-65
2022/06/25 08:46:11;;;;;;;4.75;3.28;;;;;;;34.10;33.63;99241.22;4992829;28;20671;-65
2022/06/25 08:48:41;;;;;;;3.35;3.10;;;;;;;34.11;33.52;99243.63;4992978;28;20257;-65
2022/06/25 08:51:09;;;;;;;3.83;3.50;;;;;;;34.00;33.64;99241.78;4992608;28;20683;-65
2022/06/25 08:53:36;;;;;;;3.45;2.88;;;;;;;33.95;33.91;99244.78;4992202;28;20223;-65
2022/06/25 08:56:03;;;;;;;3.85;3.55;;;;;;;33.79;34.27;99244.75;4992503;28;20230;-65
2022/06/25 08:58:30;;;;;;;3.58;3.28;;;;;;;33.65;34.82;99240.84;4993000;28;20277;-65
2022/06/25 09:00:59;;;;;;;4.13;3.83;;;;;;;33.52;35.08;99231.84;4992926;28;20249;-65
2022/06/25 09:03:26;;;;;;;3.97;3.67;;;;;;;33.39;35.39;99229.50;4992775;28;20202;-66
2022/06/25 09:05:53;;;;;;;8.98;3.92;;;;;;;33.40;35.38;99220.09;4992851;28;20282;-65
2022/06/25 09:08:19;;;;;;;4.13;3.83;;;;;;;33.18;35.92;99221.41;4992564;28;20194;-65
2022/06/25 09:10:52;;;;;;;3.60;3.25;;;;;;;33.28;35.71;99199.69;5002011;28;20248;-65
2022/06/25 09:13:23;;;;;;;3.35;3.15;;;;;;;33.42;35.65;99215.00;5011918;28;20238;-65
2022/06/25 09:15:50;;;;;;;3.72;3.35;;;;;;;33.35;35.89;99217.59;5012050;28;20265;-65
2022/06/25 09:18:19;;;;;;;3.72;3.40;;;;;;;33.42;35.72;99220.53;5012359;28;20255;-65
2022/06/25 09:20:57;;;;;;;4.00;3.55;;;;;;;33.49;36.03;99221.53;5012198;28;20190;-65
2022/06/25 09:23:23;;;;;;;3.60;3.22;;;;;;;33.70;35.11;99210.25;5012290;28;20194;-65
2022/06/25 09:26:02;;;;;;;3.72;3.42;;;;;;;33.56;36.06;99224.47;5012503;28;20198;-65
2022/06/25 09:28:31;;;;;;;3.90;3.33;;;;;;;33.51;35.42;99223.94;5012892;28;20185;-65
2022/06/25 09:30:58;;;;;;;4.18;3.67;;;;;;;33.33;36.00;99228.97;5012094;28;20196;-65
2022/06/25 09:33:26;;;;;;;3.90;3.42;;;;;;;33.49;34.40;99221.53;5012138;28;20226;-65
2022/06/25 09:35:55;;;;;;;8.55;3.25;;;;;;;33.84;34.50;99221.69;5012124;28;20202;-66
2022/06/25 09:38:22;;;;;;;3.83;3.28;;;;;;;34.10;34.16;99213.66;5012220;28;20198;-66
2022/06/25 09:40:52;;;;;;;4.32;3.90;;;;;;;33.71;33.28;99211.88;5012099;28;20194;-66
2022/06/25 09:43:20;;;;;;;4.50;4.25;;;;;;;33.79;33.77;99219.13;5011419;28;20206;-67
2022/06/25 09:45:48;;;;;;;4.00;3.38;;;;;;;34.05;33.25;99216.69;5012280;28;20194;-65
2022/06/25 09:48:20;;;;;;;3.28;3.08;;;;;;;34.01;32.16;99210.28;5012041;28;20198;-63
2022/06/25 09:51:05;;;;;;;3.42;3.20;;;;;;;34.08;32.38;99210.47;5011557;28;20190;-65
2022/06/25 09:53:33;;;;;;;3.90;3.70;;;;;;;33.96;32.70;99207.81;5012004;28;20213;-64
2022/06/25 09:56:00;;;;;;;4.82;3.75;;;;;;;33.83;32.89;99198.81;5012185;28;20190;-65
2022/06/25 09:58:27;;;;;;;3.70;3.40;;;;;;;33.46;33.57;99202.94;5012269;28;20190;-65
2022/06/25 10:00:55;;;;;;;4.18;3.65;;;;;;;33.85;33.05;99207.56;5011659;28;20724;-65
2022/06/25 10:03:23;;;;;;;3.28;2.97;;;;;;;34.16;32.78;99212.25;5011606;28;20740;-65
2022/06/25 10:05:54;;;;;;;3.20;2.90;;;;;;;34.38;32.21;99217.94;5012776;28;20201;-65
2022/06/25 10:08:23;;;;;;;3.28;3.08;;;;;;;34.57;31.89;99211.66;5016099;28;20194;-65
2022/06/25 10:10:51;;;;;;;4.25;3.53;;;;;;;34.17;33.06;99208.31;5005574;28;20198;-65
2022/06/25 10:13:19;;;;;;;3.58;3.28;;;;;;;34.09;33.81;99203.78;4995806;28;20309;-65
2022/06/25 10:15:46;;;;;;;3.22;3.00;;;;;;;33.86;33.32;99205.56;4995571;28;20191;-65
2022/06/25 10:18:13;;;;;;;4.07;3.22;;;;;;;33.90;33.19;99200.94;4995455;28;20233;-65
2022/06/25 10:20:42;;;;;;;3.95;3.58;;;;;;;33.81;33.38;99205.81;4995680;28;20277;-65
2022/06/25 10:23:12;;;;;;;3.97;3.47;;;;;;;33.90;33.61;99203.72;4995794;28;20202;-65
2022/06/25 10:25:41;;;;;;;3.08;2.80;;;;;;;34.08;33.10;99204.97;4995873;28;20253;-66
2022/06/25 10:28:10;;;;;;;4.82;3.20;;;;;;;34.21;32.79;99201.72;4996312;28;20202;-65
2022/06/25 10:30:44;;;;;;;10.30;3.60;;;;;;;34.45;32.25;99197.97;4995463;28;20198;-66
2022/06/25 10:33:11;;;;;;;6.75;3.13;;;;;;;34.69;31.82;99197.69;4995067;28;20244;-66
2022/06/25 10:35:40;;;;;;;3.42;2.97;;;;;;;34.82;32.43;99186.19;4995381;28;20257;-65
2022/06/25 10:38:09;;;;;;;3.47;3.28;;;;;;;34.55;32.45;99183.59;4995883;28;20222;-68
2022/06/25 10:40:50;;;;;;;5.22;3.42;;;;;;;34.74;32.61;99189.16;4995756;28;20555;-66
2022/06/25 10:43:37;;;;;;;2.97;2.67;;;;;;;34.53;31.63;99189.47;4995664;28;20202;-66
2022/06/25 10:46:24;;;;;;;3.45;3.15;;;;;;;34.05;32.62;99189.13;4994925;28;20198;-66
2022/06/25 10:48:52;;;;;;;3.33;3.03;;;;;;;34.24;32.01;99178.13;4996093;28;20199;-66
2022/06/25 10:51:29;;;;;;;9.82;3.25;;;;;;;34.55;31.80;99176.13;4995014;28;20281;-65
2022/06/25 10:53:56;;;;;;;4.65;3.08;;;;;;;34.40;30.55;99173.41;4995941;28;20297;-65
2022/06/25 10:56:24;;;;;;;3.35;3.00;;;;;;;34.21;31.75;99160.34;4995066;28;20202;-65
2022/06/25 10:58:52;;;;;;;3.45;3.15;;;;;;;34.52;31.33;99165.81;4994763;28;20257;-65
2022/06/25 11:01:35;;;;;;;3.22;3.00;;;;;;;34.79;31.55;99169.53;4994992;28;20269;-65
2022/06/25 11:04:08;;;;;;;8.35;3.25;;;;;;;34.77;31.83;99177.38;4994709;28;20721;-65
2022/06/25 11:06:38;;;;;;;3.70;2.90;;;;;;;35.05;31.43;99169.69;4994896;28;20654;-65
2022/06/25 11:09:10;;;;;;;3.85;3.20;;;;;;;35.04;30.68;99165.34;4995754;28;20193;-66
2022/06/25 11:11:40;;;;;;;3.45;3.25;;;;;;;34.99;31.00;99162.88;5010889;28;20194;-65
2022/06/25 11:14:18;;;;;;;3.58;3.28;;;;;;;35.15;29.96;99169.13;5014368;28;20234;-66
2022/06/25 11:16:45;;;;;;;3.35;3.15;;;;;;;35.42;29.23;99170.81;5013666;28;20712;-66
2022/06/25 11:19:12;;;;;;;7.28;3.15;;;;;;;35.59;29.93;99162.03;5014506;28;20217;-65
2022/06/25 11:21:40;;;;;;;3.55;3.05;;;;;;;35.52;30.12;99150.88;5014032;28;20744;-64
2022/06/25 11:24:09;;;;;;;4.07;3.05;;;;;;;35.34;30.39;99152.50;5014202;28;20252;-64
2022/06/25 11:29:24;;;;;;;6.65;3.00;;;;;;;35.31;30.43;99153.28;5013905;28;20184;-64
2022/06/25 11:31:52;;;;;;;11.13;3.72;;;;;;;35.49;29.69;99143.31;5013994;28;20658;-64
2022/06/25 11:34:20;;;;;;;7.53;3.70;;;;;;;35.36;29.68;99150.19;5013839;28;20675;-64
2022/06/25 11:36:56;;;;;;;15.90;4.80;;;;;;;34.80;30.52;99138.03;5013833;28;20197;-64
2022/06/25 11:39:22;;;;;;;3.88;3.38;;;;;;;35.06;30.33;99143.66;5014765;28;20193;-63
2022/06/25 11:41:51;;;;;;;9.52;3.47;;;;;;;35.16;29.96;99143.09;5013788;28;20198;-63
2022/06/25 11:44:19;;;;;;;6.82;3.40;;;;;;;34.92;30.21;99140.63;5014071;28;20256;-63
2022/06/25 11:46:48;;;;;;;3.60;3.33;;;;;;;34.87;29.41;99132.66;5013264;28;20194;-64
2022/06/25 11:49:16;;;;;;;4.55;3.33;;;;;;;34.71;30.60;99118.91;5013652;28;20205;-64
2022/06/25 11:51:48;;;;;;;5.40;3.80;;;;;;;34.60;30.73;99109.63;5014312;28;20193;-64
2022/06/25 11:54:16;;;;;;;3.65;3.35;;;;;;;34.57;31.13;99118.59;5013625;28;20276;-65
2022/06/25 11:56:54;;;;;;;4.75;3.60;;;;;;;34.85;30.10;99118.41;5013503;28;20249;-64